Yulin, China
Current Conditions -  °F | °C
As of 12:00 AM on Saturday 25 Oct 2014 (Local Time) from ZBYN Reporting Station
Haze Haze  
Wind Chill: 46°   Ceiling: Unl
Heat Index: 48°   Visibility: 1.8mi
Dew Point: 41°   Wind: 4mph
Humidity: 76%   Direction: 90°E
Pressure: 29.97"   Gusts: NA
Location:  38.23°N, 109.7°E
Report Text: ZBYN 241600Z 09002MPS 3000 HZ NSC 09/05 Q1015 NOSIG
Loading
Personal Weather Stations






























Interactive Weather Map
Tropical Storm Tracking
New forecast layout! Learn more

10-Day Weather Forecast

Advertisements
Track Severe Weather on mobile